createdAt,value
2018-01-12T00:00:19.634Z,101814.52
2018-01-12T00:02:45.450Z,101815.41
2018-01-12T00:05:11.271Z,101818.30
2018-01-12T00:07:37.138Z,101820.68
2018-01-12T00:10:02.959Z,101818.94
2018-01-12T00:12:28.770Z,101824.80
2018-01-12T00:14:54.700Z,101817.45
2018-01-12T00:17:20.523Z,101814.61
2018-01-12T00:19:46.427Z,101820.77
2018-01-12T00:22:12.243Z,101823.78
2018-01-12T00:24:38.215Z,101824.29
2018-01-12T00:27:04.030Z,101829.67
2018-01-12T00:29:29.842Z,101829.57
2018-01-12T00:31:55.663Z,101827.77
2018-01-12T00:34:21.486Z,101832.66
2018-01-12T00:36:47.306Z,101850.71
2018-01-12T00:39:13.158Z,101848.00
2018-01-12T00:41:38.996Z,101843.59
2018-01-12T00:44:04.826Z,101844.98
2018-01-12T00:46:30.695Z,101847.20
2018-01-12T00:48:56.559Z,101852.30
2018-01-12T00:51:22.383Z,101855.20
2018-01-12T00:53:48.211Z,101860.11
2018-01-12T00:56:14.151Z,101858.67
2018-01-12T00:58:40.079Z,101864.99
2018-01-12T01:01:05.931Z,101862.97
2018-01-12T01:03:31.799Z,101869.88
2018-01-12T01:05:57.634Z,101868.91
2018-01-12T01:08:23.486Z,101867.96
2018-01-12T01:10:49.414Z,101876.77
2018-01-12T01:13:15.221Z,101875.95
2018-01-12T01:15:41.288Z,101885.05
2018-01-12T01:18:07.134Z,101886.09
2018-01-12T01:20:32.942Z,101889.58
2018-01-12T01:22:58.754Z,101892.73
2018-01-12T01:25:24.565Z,101887.87
2018-01-12T01:27:50.374Z,101888.70
2018-01-12T01:30:16.242Z,101890.27
2018-01-12T01:32:42.059Z,101886.80
2018-01-12T01:35:07.907Z,101892.72
2018-01-12T01:37:33.714Z,101890.08
2018-01-12T01:39:59.709Z,101893.06
2018-01-12T01:42:25.566Z,101896.70
2018-01-12T01:44:51.520Z,101893.80
2018-01-12T01:47:17.334Z,101898.45
2018-01-12T01:49:43.200Z,101899.12
2018-01-12T01:52:09.009Z,101899.74
2018-01-12T01:54:34.826Z,101903.61
2018-01-12T01:57:00.773Z,101911.84
2018-01-12T01:59:26.786Z,101910.55
2018-01-12T02:01:52.595Z,101910.10
2018-01-12T02:04:18.406Z,101916.33
2018-01-12T02:06:44.264Z,101915.91
2018-01-12T02:09:10.195Z,101916.62
2018-01-12T02:11:36.034Z,101912.69
2018-01-12T02:14:01.847Z,101912.80
2018-01-12T02:16:27.663Z,101918.56
2018-01-12T02:18:53.546Z,101922.40
2018-01-12T02:21:19.358Z,101922.20
2018-01-12T02:23:45.173Z,101929.59
2018-01-12T02:26:10.985Z,101930.65
2018-01-12T02:28:36.794Z,101931.56
2018-01-12T02:31:02.606Z,101932.25
2018-01-12T02:33:28.466Z,101935.48
2018-01-12T02:35:54.279Z,101933.59
2018-01-12T02:38:20.086Z,101937.60
2018-01-12T02:40:46.014Z,101941.45
2018-01-12T02:43:11.931Z,101937.31
2018-01-12T02:45:37.870Z,101940.41
2018-01-12T02:48:03.683Z,101951.79
2018-01-12T02:50:29.606Z,101948.09
2018-01-12T02:52:55.407Z,101956.16
2018-01-12T02:55:21.214Z,101954.63
2018-01-12T02:57:47.027Z,101953.34
2018-01-12T03:00:12.982Z,101957.77
2018-01-12T03:02:38.795Z,101966.30
2018-01-12T03:05:04.625Z,101962.77
2018-01-12T03:07:31.466Z,101961.73
2018-01-12T03:09:57.273Z,101966.77
2018-01-12T03:12:23.943Z,101971.32
2018-01-12T03:14:50.710Z,101972.45
2018-01-12T03:17:17.418Z,101970.00
2018-01-12T03:19:44.163Z,101983.17
2018-01-12T03:22:11.226Z,101977.80
2018-01-12T03:24:37.854Z,101977.72
2018-01-12T03:27:04.599Z,101978.17
2018-01-12T03:29:30.430Z,101972.75
2018-01-12T03:31:56.246Z,101981.33
2018-01-12T03:34:22.211Z,101980.95
2018-01-12T03:36:48.830Z,101976.85
2018-01-12T03:39:15.601Z,101984.16
2018-01-12T03:41:41.458Z,101986.51
2018-01-12T03:44:07.265Z,101981.42
2018-01-12T03:46:33.197Z,101983.36
2018-01-12T03:48:59.038Z,101993.86
2018-01-12T03:51:24.863Z,101989.77
2018-01-12T03:53:50.711Z,101998.38
2018-01-12T03:56:16.526Z,102000.34
2018-01-12T03:58:42.418Z,102009.58
2018-01-12T04:01:08.226Z,102006.84
2018-01-12T04:03:34.062Z,102006.70
2018-01-12T04:05:59.881Z,102009.52
2018-01-12T04:08:26.555Z,102014.94
2018-01-12T04:10:52.559Z,102006.09
2018-01-12T04:13:18.382Z,102012.39
2018-01-12T04:15:44.182Z,102012.53
2018-01-12T04:18:09.993Z,102013.15
2018-01-12T04:20:35.835Z,102017.28
2018-01-12T04:23:01.819Z,102019.45
2018-01-12T04:25:28.590Z,102022.80
2018-01-12T04:27:55.341Z,102024.25
2018-01-12T04:30:21.173Z,102020.77
2018-01-12T04:32:46.994Z,102024.49
2018-01-12T04:35:13.020Z,102024.72
2018-01-12T04:37:39.742Z,102020.72
2018-01-12T04:40:05.586Z,102025.20
2018-01-12T04:42:32.369Z,102028.62
2018-01-12T04:44:58.175Z,102030.36
2018-01-12T04:47:24.119Z,102027.17
2018-01-12T04:49:49.922Z,102030.41
2018-01-12T04:52:15.733Z,102030.32
2018-01-12T04:54:41.547Z,102031.06
2018-01-12T04:57:07.360Z,102043.30
2018-01-12T04:59:33.360Z,102042.51
2018-01-12T05:02:00.032Z,102032.72
2018-01-12T05:04:26.826Z,102037.66
2018-01-12T05:06:52.742Z,102037.66
2018-01-12T05:09:18.547Z,102045.17
2018-01-12T05:11:45.482Z,102045.05
2018-01-12T05:14:11.288Z,102043.40
2018-01-12T05:16:37.098Z,102047.63
2018-01-12T05:19:02.915Z,102052.43
2018-01-12T05:21:28.754Z,102057.80
2018-01-12T05:23:54.687Z,102061.61
2018-01-12T05:26:20.502Z,102062.59
2018-01-12T05:28:46.307Z,102063.68
2018-01-12T05:31:12.150Z,102061.59
2018-01-12T05:33:38.069Z,102068.09
2018-01-12T05:36:03.985Z,102065.70
2018-01-12T05:38:29.814Z,102069.69
2018-01-12T05:40:56.570Z,102064.23
2018-01-12T05:43:22.409Z,102066.27
2018-01-12T05:45:48.218Z,102069.23
2018-01-12T05:48:14.221Z,102073.00
2018-01-12T05:50:40.027Z,102072.52
2018-01-12T05:53:05.952Z,102073.41
2018-01-12T05:55:31.894Z,102069.50
2018-01-12T05:57:57.688Z,102075.45
2018-01-12T06:00:23.575Z,102082.22
2018-01-12T06:02:55.462Z,102077.36
2018-01-12T06:05:27.454Z,102086.06
2018-01-12T06:07:53.261Z,102091.50
2018-01-12T06:10:19.106Z,102094.06
2018-01-12T06:12:46.120Z,102099.81
2018-01-12T06:15:11.926Z,102101.36
2018-01-12T06:17:38.790Z,102108.00
2018-01-12T06:20:05.399Z,102115.74
2018-01-12T06:22:31.202Z,102113.67
2018-01-12T06:24:57.079Z,102121.41
2018-01-12T06:27:23.770Z,102123.22
2018-01-12T06:29:50.653Z,102126.84
2018-01-12T06:32:16.460Z,102129.47
2018-01-12T06:34:42.266Z,102127.58
2018-01-12T06:37:08.127Z,102132.78
2018-01-12T06:39:33.929Z,102133.62
2018-01-12T06:41:59.747Z,102135.74
2018-01-12T06:44:25.560Z,102139.33
2018-01-12T06:46:52.289Z,102145.80
2018-01-12T06:49:18.130Z,102145.50
2018-01-12T06:51:44.010Z,102145.64
2018-01-12T06:54:09.991Z,102153.36
2018-01-12T06:56:35.799Z,102151.45
2018-01-12T06:59:01.605Z,102149.34
2018-01-12T07:01:27.539Z,102154.48
2018-01-12T07:03:53.349Z,102161.80
2018-01-12T07:06:19.296Z,102163.71
2018-01-12T07:08:45.149Z,102167.73
2018-01-12T07:11:11.002Z,102168.09
2018-01-12T07:13:36.830Z,102173.13
2018-01-12T07:16:02.634Z,102172.64
2018-01-12T07:18:29.260Z,102172.87
2018-01-12T07:21:01.234Z,102169.56
2018-01-12T07:23:33.127Z,102176.46
2018-01-12T07:25:58.937Z,102184.69
2018-01-12T07:28:24.742Z,102183.25
2018-01-12T07:30:50.546Z,102185.19
2018-01-12T07:33:16.349Z,102191.15
2018-01-12T07:35:42.341Z,102188.50
2018-01-12T07:38:08.995Z,102187.44
2018-01-12T07:40:35.885Z,102196.41
2018-01-12T07:43:02.340Z,102202.48
2018-01-12T07:45:28.286Z,102202.75
2018-01-12T07:50:27.586Z,102212.16
2018-01-12T07:52:59.474Z,102206.48
2018-01-12T07:55:25.277Z,102210.73
2018-01-12T07:57:51.189Z,102218.52
2018-01-12T08:00:17.006Z,102220.36
2018-01-12T08:03:03.871Z,102231.11
2018-01-12T08:05:29.675Z,102226.02
2018-01-12T08:07:56.421Z,102217.59
2018-01-12T08:10:23.269Z,102227.00
2018-01-12T08:12:49.110Z,102234.30
2018-01-12T08:15:14.914Z,102233.92
2018-01-12T08:17:40.716Z,102240.25
2018-01-12T08:20:06.527Z,102243.84
2018-01-12T08:22:32.681Z,102244.80
2018-01-12T08:24:58.562Z,102244.20
2018-01-12T08:27:24.406Z,102250.70
2018-01-12T08:29:50.218Z,102253.46
2018-01-12T08:32:16.146Z,102253.50
2018-01-12T08:34:41.948Z,102252.41
2018-01-12T08:39:43.958Z,102266.27
2018-01-12T08:42:09.825Z,102268.86
2018-01-12T08:44:35.638Z,102273.23
2018-01-12T08:47:01.450Z,102268.48
2018-01-12T08:49:27.266Z,102269.81
2018-01-12T08:51:53.079Z,102278.52
2018-01-12T08:54:18.886Z,102275.55
2018-01-12T08:56:44.722Z,102275.89
2018-01-12T08:59:11.262Z,102276.44
2018-01-12T09:01:37.176Z,102281.71
2018-01-12T09:04:03.085Z,102284.68
2018-01-12T09:06:29.251Z,102292.71
2018-01-12T09:08:59.298Z,102296.23
2018-01-12T09:11:25.508Z,102295.39
2018-01-12T09:13:52.912Z,102297.91
2018-01-12T09:16:26.406Z,102305.20
2018-01-12T09:19:00.163Z,102306.87
2018-01-12T09:21:28.018Z,102310.94
2018-01-12T09:23:55.562Z,102313.78
2018-01-12T09:26:21.830Z,102313.58
2018-01-12T09:28:47.905Z,102316.17
2018-01-12T09:31:14.674Z,102311.70
2018-01-12T09:33:47.842Z,102314.39
2018-01-12T09:36:13.657Z,102313.62
2018-01-12T09:38:44.572Z,102315.36
2018-01-12T09:41:10.734Z,102317.83
2018-01-12T09:43:36.544Z,102328.58
2018-01-12T09:46:02.361Z,102322.08
2018-01-12T09:48:31.033Z,102317.91
2018-01-12T09:50:56.850Z,102324.79
2018-01-12T09:53:22.694Z,102322.84
2018-01-12T09:55:48.513Z,102324.33
2018-01-12T09:58:14.577Z,102324.63
2018-01-12T10:00:40.486Z,102324.41
2018-01-12T10:03:06.360Z,102318.92
2018-01-12T10:05:32.178Z,102325.05
2018-01-12T10:08:08.750Z,102320.25
2018-01-12T10:10:34.721Z,102324.97
2018-01-12T10:13:00.605Z,102329.67
2018-01-12T10:15:26.421Z,102327.25
2018-01-12T10:17:55.395Z,102331.64
2018-01-12T10:20:36.160Z,102326.38
2018-01-12T10:23:01.969Z,102329.55
2018-01-12T10:25:27.779Z,102327.89
2018-01-12T10:27:53.593Z,102326.66
2018-01-12T10:33:15.784Z,102330.73
2018-01-12T10:35:47.765Z,102330.52
2018-01-12T10:38:14.540Z,102332.19
2018-01-12T10:40:46.594Z,102337.80
2018-01-12T10:43:12.434Z,102338.89
2018-01-12T10:45:44.334Z,102342.34
2018-01-12T10:48:10.194Z,102340.59
2018-01-12T10:50:42.121Z,102345.91
2018-01-12T10:53:08.163Z,102347.02
2018-01-12T10:55:34.173Z,102348.80
2018-01-12T10:58:00.142Z,102348.33
2018-01-12T11:00:32.977Z,102353.77
2018-01-12T11:02:58.950Z,102347.36
2018-01-12T11:05:24.911Z,102353.19
2018-01-12T11:07:50.816Z,102358.11
2018-01-12T11:10:16.637Z,102354.75
2018-01-12T11:12:42.446Z,102353.47
2018-01-12T11:15:08.329Z,102365.67
2018-01-12T11:17:34.142Z,102359.52
2018-01-12T11:20:00.101Z,102361.47
2018-01-12T11:22:26.046Z,102370.05
2018-01-12T11:24:51.849Z,102361.81
2018-01-12T11:27:17.674Z,102362.14
2018-01-12T11:29:43.512Z,102372.22
2018-01-12T11:32:09.401Z,102368.69
2018-01-12T11:34:35.241Z,102369.37
2018-01-12T11:37:01.076Z,102371.79
2018-01-12T11:39:27.079Z,102365.55
2018-01-12T11:41:52.917Z,102367.92
2018-01-12T11:44:18.925Z,102369.46
2018-01-12T11:46:44.802Z,102371.23
2018-01-12T11:49:10.623Z,102369.84
2018-01-12T11:51:36.434Z,102371.41
2018-01-12T11:54:03.214Z,102370.94
2018-01-12T11:56:29.020Z,102369.58
2018-01-12T11:58:55.850Z,102361.77
2018-01-12T12:01:22.128Z,102361.08
2018-01-12T12:03:47.937Z,102359.97
2018-01-12T12:06:14.702Z,102365.41
2018-01-12T12:08:40.649Z,102369.66
2018-01-12T12:11:06.492Z,102369.11
2018-01-12T12:13:32.338Z,102370.09
2018-01-12T12:15:59.034Z,102370.52
2018-01-12T12:18:24.893Z,102366.30
2018-01-12T12:20:51.979Z,102368.08
2018-01-12T12:23:17.789Z,102369.42
2018-01-12T12:25:43.598Z,102371.36
2018-01-12T12:28:09.401Z,102367.98
2018-01-12T12:30:35.345Z,102372.37
2018-01-12T12:33:01.190Z,102367.07
2018-01-12T12:35:26.993Z,102365.63
2018-01-12T12:37:52.829Z,102363.80
2018-01-12T12:40:18.634Z,102364.83
2018-01-12T12:42:44.658Z,102368.05
2018-01-12T12:45:10.536Z,102371.58
2018-01-12T12:47:36.374Z,102366.19
2018-01-12T12:50:02.287Z,102368.14
2018-01-12T12:52:28.130Z,102364.82
2018-01-12T12:54:53.970Z,102370.86
2018-01-12T12:57:19.783Z,102371.42
2018-01-12T12:59:45.668Z,102369.89
2018-01-12T13:02:11.698Z,102374.05
2018-01-12T13:04:37.534Z,102374.47
2018-01-12T13:07:03.386Z,102374.86
2018-01-12T13:09:29.386Z,102373.24
2018-01-12T13:11:55.186Z,102378.42
2018-01-12T13:14:21.035Z,102375.66
2018-01-12T13:16:47.026Z,102378.98
2018-01-12T13:19:12.838Z,102380.08
2018-01-12T13:21:38.646Z,102381.91
2018-01-12T13:24:04.454Z,102386.06
2018-01-12T13:26:30.287Z,102381.39
2018-01-12T13:28:56.090Z,102377.10
2018-01-12T13:31:21.900Z,102389.72
2018-01-12T13:33:47.734Z,102388.16
2018-01-12T13:36:14.593Z,102388.28
2018-01-12T13:38:40.429Z,102386.16
2018-01-12T13:41:06.228Z,102391.20
2018-01-12T13:43:33.014Z,102393.38
2018-01-12T13:45:59.730Z,102402.51
2018-01-12T13:48:25.640Z,102400.34
2018-01-12T13:50:51.457Z,102404.55
2018-01-12T13:53:17.385Z,102402.97
2018-01-12T13:55:43.314Z,102406.03
2018-01-12T13:58:09.194Z,102406.94
2018-01-12T14:00:34.998Z,102413.83
2018-01-12T14:03:01.626Z,102407.84
2018-01-12T14:05:28.397Z,102417.33
2018-01-12T14:07:54.267Z,102413.84
2018-01-12T14:10:21.081Z,102415.52
2018-01-12T14:12:46.880Z,102419.14
2018-01-12T14:15:12.715Z,102422.78
2018-01-12T14:17:38.525Z,102425.31
2018-01-12T14:20:05.186Z,102420.04
2018-01-12T14:22:31.114Z,102424.46
2018-01-12T14:24:57.041Z,102422.45
2018-01-12T14:27:22.967Z,102425.90
2018-01-12T14:29:49.781Z,102421.56
2018-01-12T14:32:15.657Z,102422.76
2018-01-12T14:34:41.460Z,102427.17
2018-01-12T14:37:07.313Z,102429.44
2018-01-12T14:39:33.181Z,102425.86
2018-01-12T14:41:59.085Z,102432.52
2018-01-12T14:44:25.032Z,102429.77
2018-01-12T14:46:50.841Z,102433.85
2018-01-12T14:49:16.645Z,102436.83
2018-01-12T14:51:42.463Z,102437.55
2018-01-12T14:54:08.349Z,102442.77
2018-01-12T14:56:34.175Z,102451.78
2018-01-12T14:58:59.981Z,102452.03
2018-01-12T15:01:25.928Z,102451.88
2018-01-12T15:03:51.725Z,102455.70
2018-01-12T15:06:17.606Z,102454.93
2018-01-12T15:08:43.414Z,102457.34
2018-01-12T15:11:09.219Z,102457.47
2018-01-12T15:13:35.178Z,102457.53
2018-01-12T15:16:00.983Z,102459.05
2018-01-12T15:18:26.781Z,102461.42
2018-01-12T15:20:52.589Z,102466.28
2018-01-12T15:23:18.386Z,102469.50
2018-01-12T15:25:44.186Z,102468.43
2018-01-12T15:28:10.029Z,102470.58
2018-01-12T15:30:35.838Z,102471.15
2018-01-12T15:33:01.757Z,102466.69
2018-01-12T15:35:27.586Z,102469.14
2018-01-12T15:37:53.388Z,102474.67
2018-01-12T15:40:19.225Z,102469.12
2018-01-12T15:42:45.034Z,102478.80
2018-01-12T15:45:10.978Z,102479.50
2018-01-12T15:47:36.922Z,102484.70
2018-01-12T15:50:02.795Z,102478.89
2018-01-12T15:52:28.609Z,102478.61
2018-01-12T15:54:54.501Z,102484.51
2018-01-12T15:57:20.313Z,102481.45
2018-01-12T15:59:46.241Z,102482.92
2018-01-12T16:02:12.273Z,102482.56
2018-01-12T16:04:38.206Z,102488.26
2018-01-12T16:07:04.118Z,102490.40
2018-01-12T16:09:32.458Z,102488.67
2018-01-12T16:11:58.278Z,102486.98
2018-01-12T16:14:24.113Z,102488.36
2018-01-12T16:16:49.922Z,102484.89
2018-01-12T16:19:15.786Z,102487.41
2018-01-12T16:21:41.586Z,102494.37
2018-01-12T16:24:07.576Z,102495.55
2018-01-12T16:26:33.390Z,102493.59
2018-01-12T16:28:59.233Z,102493.89
2018-01-12T16:31:25.825Z,102499.84
2018-01-12T16:33:51.691Z,102495.78
2018-01-12T16:36:17.776Z,102492.52
2018-01-12T16:38:43.621Z,102503.92
2018-01-12T16:41:09.501Z,102509.42
2018-01-12T16:43:35.460Z,102502.03
2018-01-12T16:46:01.335Z,102506.76
2018-01-12T16:48:27.261Z,102501.46
2018-01-12T16:50:53.062Z,102507.42
2018-01-12T16:53:19.014Z,102503.98
2018-01-12T16:55:44.878Z,102504.22
2018-01-12T16:58:10.846Z,102511.41
2018-01-12T17:00:36.821Z,102507.63
2018-01-12T17:03:02.655Z,102512.77
2018-01-12T17:05:28.557Z,102513.59
2018-01-12T17:07:54.401Z,102518.61
2018-01-12T17:10:20.302Z,102519.86
2018-01-12T17:12:47.076Z,102523.97
2018-01-12T17:15:12.955Z,102530.95
2018-01-12T17:17:38.949Z,102531.79
2018-01-12T17:20:04.774Z,102526.89
2018-01-12T17:22:30.576Z,102530.16
2018-01-12T17:24:56.391Z,102524.62
2018-01-12T17:27:23.294Z,102529.81
2018-01-12T17:29:49.981Z,102533.39
2018-01-12T17:32:15.961Z,102532.98
2018-01-12T17:34:41.766Z,102534.50
2018-01-12T17:37:07.577Z,102536.47
2018-01-12T17:39:33.581Z,102538.97
2018-01-12T17:41:59.383Z,102541.17
2018-01-12T17:44:25.190Z,102538.50
2018-01-12T17:46:50.994Z,102544.23
2018-01-12T17:49:16.803Z,102541.98
2018-01-12T17:51:42.610Z,102541.02
2018-01-12T17:54:08.439Z,102546.87
2018-01-12T17:56:34.258Z,102543.88
2018-01-12T17:59:01.110Z,102542.83
2018-01-12T18:01:27.094Z,102542.44
2018-01-12T18:03:53.002Z,102548.36
2018-01-12T18:06:18.818Z,102541.00
2018-01-12T18:08:44.622Z,102544.73
2018-01-12T18:11:11.590Z,102550.89
2018-01-12T18:13:37.533Z,102544.30
2018-01-12T18:16:03.364Z,102547.44
2018-01-12T18:18:29.367Z,102556.00
2018-01-12T18:20:55.171Z,102551.74
2018-01-12T18:23:20.970Z,102554.27
2018-01-12T18:25:47.011Z,102560.34
2018-01-12T18:28:12.818Z,102555.50
2018-01-12T18:30:38.634Z,102561.43
2018-01-12T18:33:04.437Z,102559.19
2018-01-12T18:35:30.298Z,102563.83
2018-01-12T18:37:56.109Z,102572.63
2018-01-12T18:40:21.929Z,102570.11
2018-01-12T18:42:47.779Z,102575.58
2018-01-12T18:45:13.793Z,102573.80
2018-01-12T18:47:39.637Z,102579.41
2018-01-12T18:50:05.525Z,102588.47
2018-01-12T18:52:32.212Z,102583.44
2018-01-12T18:54:58.085Z,102583.52
2018-01-12T18:57:23.896Z,102586.77
2018-01-12T18:59:49.862Z,102587.59
2018-01-12T19:02:15.670Z,102591.85
2018-01-12T19:04:41.486Z,102587.01
2018-01-12T19:07:07.290Z,102587.31
2018-01-12T19:09:33.166Z,102586.11
2018-01-12T19:12:00.067Z,102596.11
2018-01-12T19:14:26.010Z,102596.11
2018-01-12T19:16:52.013Z,102602.19
2018-01-12T19:19:17.970Z,102606.06
2018-01-12T19:21:43.777Z,102605.06
2018-01-12T19:24:09.660Z,102614.20
2018-01-12T19:26:35.497Z,102616.45
2018-01-12T19:29:01.453Z,102615.48
2018-01-12T19:31:27.254Z,102621.65
2018-01-12T19:33:54.145Z,102616.45
2018-01-12T19:36:19.946Z,102622.16
2018-01-12T19:38:45.837Z,102628.73
2018-01-12T19:41:11.641Z,102628.89
2018-01-12T19:43:37.469Z,102629.47
2018-01-12T19:46:03.514Z,102634.03
2018-01-12T19:48:29.317Z,102633.84
2018-01-12T19:50:55.158Z,102625.09
2018-01-12T19:53:20.961Z,102631.48
2018-01-12T19:55:46.805Z,102632.03
2018-01-12T19:58:12.675Z,102630.44
2018-01-12T20:00:38.570Z,102630.67
2018-01-12T20:03:04.540Z,102632.45
2018-01-12T20:05:30.353Z,102630.44
2018-01-12T20:07:56.266Z,102631.75
2018-01-12T20:10:22.094Z,102632.69
2018-01-12T20:12:48.969Z,102637.34
2018-01-12T20:15:15.781Z,102634.44
2018-01-12T20:17:41.637Z,102636.59
2018-01-12T20:20:07.452Z,102633.27
2018-01-12T20:22:33.305Z,102625.52
2018-01-12T20:24:59.265Z,102636.28
2018-01-12T20:27:25.143Z,102628.11
2018-01-12T20:29:50.957Z,102631.13
2018-01-12T20:32:16.819Z,102633.89
2018-01-12T20:34:42.781Z,102634.63
2018-01-12T20:37:08.629Z,102641.38
2018-01-12T20:39:34.513Z,102637.77
2018-01-12T20:42:00.348Z,102641.22
2018-01-12T20:44:26.170Z,102646.56
2018-01-12T20:46:52.088Z,102650.94
2018-01-12T20:49:18.082Z,102655.52
2018-01-12T20:51:44.010Z,102652.27
2018-01-12T20:54:09.829Z,102651.14
2018-01-12T20:56:35.807Z,102659.94
2018-01-12T20:59:01.734Z,102659.47
2018-01-12T21:01:27.564Z,102657.86
2018-01-12T21:03:53.497Z,102658.67
2018-01-12T21:06:19.417Z,102653.77
2018-01-12T21:08:45.233Z,102655.52
2018-01-12T21:11:11.048Z,102657.28
2018-01-12T21:13:36.869Z,102659.28
2018-01-12T21:16:02.834Z,102666.05
2018-01-12T21:18:28.646Z,102661.29
2018-01-12T21:20:54.449Z,102655.00
2018-01-12T21:23:20.301Z,102663.89
2018-01-12T21:25:46.182Z,102668.22
2018-01-12T21:28:12.202Z,102668.45
2018-01-12T21:30:38.158Z,102670.01
2018-01-12T21:33:03.962Z,102669.86
2018-01-12T21:35:29.778Z,102676.35
2018-01-12T21:37:55.701Z,102670.70
2018-01-12T21:40:21.501Z,102675.46
2018-01-12T21:42:48.114Z,102678.48
2018-01-12T21:45:13.914Z,102680.73
2018-01-12T21:47:39.713Z,102686.28
2018-01-12T21:50:05.541Z,102686.32
2018-01-12T21:52:31.688Z,102688.17
2018-01-12T21:54:57.661Z,102687.39
2018-01-12T21:57:23.577Z,102686.62
2018-01-12T21:59:49.389Z,102689.64
2018-01-12T22:02:15.325Z,102691.89
2018-01-12T22:04:41.242Z,102700.38
2018-01-12T22:07:07.047Z,102698.97
2018-01-12T22:09:32.914Z,102695.91
2018-01-12T22:11:58.906Z,102703.17
2018-01-12T22:14:24.762Z,102696.80
2018-01-12T22:16:50.561Z,102703.41
2018-01-12T22:19:16.478Z,102703.20
2018-01-12T22:21:42.282Z,102705.59
2018-01-12T22:24:08.089Z,102701.42
2018-01-12T22:26:34.029Z,102699.64
2018-01-12T22:28:59.954Z,102698.09
2018-01-12T22:31:25.794Z,102692.34
2018-01-12T22:33:51.793Z,102692.25
2018-01-12T22:36:17.662Z,102695.17
2018-01-12T22:38:43.469Z,102690.73
2018-01-12T22:41:09.381Z,102695.34
2018-01-12T22:43:35.290Z,102695.63
2018-01-12T22:46:01.127Z,102690.84
2018-01-12T22:48:28.024Z,102695.74
2018-01-12T22:50:54.753Z,102690.61
2018-01-12T22:53:20.590Z,102694.00
2018-01-12T22:55:46.389Z,102689.62
2018-01-12T22:58:12.439Z,102691.83
2018-01-12T23:00:38.514Z,102689.40
2018-01-12T23:03:04.454Z,102688.06
2018-01-12T23:05:30.311Z,102681.27
2018-01-12T23:07:56.276Z,102686.32
2018-01-12T23:10:22.853Z,102690.81
2018-01-12T23:12:48.838Z,102684.69
2018-01-12T23:15:14.647Z,102680.63
2018-01-12T23:17:40.657Z,102678.10
2018-01-12T23:20:06.494Z,102673.48
2018-01-12T23:22:32.332Z,102675.20
2018-01-12T23:24:58.169Z,102673.39
2018-01-12T23:27:23.974Z,102674.34
2018-01-12T23:29:49.854Z,102670.38
2018-01-12T23:32:15.665Z,102667.94
2018-01-12T23:34:41.757Z,102671.66
2018-01-12T23:37:07.560Z,102669.23
2018-01-12T23:39:33.366Z,102669.80
2018-01-12T23:41:59.166Z,102670.16
2018-01-12T23:44:24.998Z,102668.64
2018-01-12T23:46:50.799Z,102664.92
2018-01-12T23:49:16.597Z,102664.92
2018-01-12T23:51:42.573Z,102665.39
2018-01-12T23:54:08.380Z,102663.42
2018-01-12T23:56:34.413Z,102660.84
2018-01-12T23:59:00.218Z,102668.78
